WetterOnline ( https://www.wetteronline.de )

Wetter aktuell Parchtitz

Aktuelles Wetter: Putbus/Rügen (41m)

6-stündlich | Neueste Meldungen
Ortszeit Temperatur Wetter
Mi, 24.04. 8:00 11.9° C bedeckt
Mi, 24.04. 2:00 12.6° C wolkig
Di, 23.04. 20:00 12.7° C bewölkt
Di, 23.04. 14:00 14.9° C wolkenlos
Di, 23.04. 8:00 11.4° C wolkenlos
Di, 23.04. 2:00 11.4° C wolkenlos
Mo, 22.04. 20:00 10.0° C wolkenlos
Mo, 22.04. 14:00 13.5° C wolkenlos
Ortszeit Temperatur Wetter
Mi, 24.04. 9:30 12.7° C wolkig
Mi, 24.04. 9:20 12.7° C wolkig
Mi, 24.04. 9:10 12.9° C wolkig
Mi, 24.04. 9:00 12.6° C bedeckt
Mi, 24.04. 8:50 12.6° C bedeckt
Mi, 24.04. 8:40 12.4° C bedeckt
Mi, 24.04. 8:30 12.2° C bedeckt
Mi, 24.04. 8:00 11.9° C bedeckt
Mi, 24.04. 7:30 11.7° C wolkig
Mi, 24.04. 7:00 11.2° C wolkenlos
Mi, 24.04. 6:30 11.3° C wolkenlos
Ortszeit Relative Feuchte Sichtweite
Mi, 24.04. 8:00 57% 23 km
Mi, 24.04. 2:00 64% 18 km
Di, 23.04. 20:00 66% 12 km
Di, 23.04. 14:00 44% 9 km
Di, 23.04. 8:00 54% 11 km
Di, 23.04. 2:00 65% 25 km
Mo, 22.04. 20:00 75% 24 km
Mo, 22.04. 14:00 51% 15 km
Ortszeit Relative Feuchte Sichtweite
Mi, 24.04. 9:30 57% 16 km
Mi, 24.04. 9:20 57% -
Mi, 24.04. 9:10 56% -
Mi, 24.04. 9:00 57% 27 km
Mi, 24.04. 8:50 57% -
Mi, 24.04. 8:40 56% -
Mi, 24.04. 8:30 58% 27 km
Mi, 24.04. 8:00 57% 23 km
Mi, 24.04. 7:30 59% 22 km
Mi, 24.04. 7:00 62% 25 km
Mi, 24.04. 6:30 61% 22 km
Ortszeit Niederschlagsmenge Niederschlagsart
Mi, 24.04. 8:00 0.1 l/m2 in 12 Std. -
Mi, 24.04. 2:00 0.1 l/m2 in 6 Std. Regen
Di, 23.04. 20:00 0.1 l/m2 in 12 Std. Regen
Di, 23.04. 14:00 0.0 l/m2 in 6 Std. -
Di, 23.04. 8:00 0.0 l/m2 in 12 Std. -
Di, 23.04. 2:00 0.0 l/m2 in 6 Std. -
Mo, 22.04. 20:00 0.0 l/m2 in 12 Std. -
Mo, 22.04. 14:00 0.0 l/m2 in 6 Std. -
Ortszeit Niederschlagsmenge Niederschlagsart
Mi, 24.04. 9:30 0.0 l/m2 in 1 Std. -
Mi, 24.04. 9:20 keine Meldung -
Mi, 24.04. 9:10 keine Meldung -
Mi, 24.04. 9:00 0.0 l/m2 in 1 Std. -
Mi, 24.04. 8:50 keine Meldung -
Mi, 24.04. 8:40 keine Meldung -
Mi, 24.04. 8:30 0.0 l/m2 in 1 Std. -
Mi, 24.04. 8:00 0.0 l/m2 in 1 Std. -
Mi, 24.04. 7:30 0.0 l/m2 in 1 Std. -
Mi, 24.04. 7:00 0.0 l/m2 in 1 Std. -
Mi, 24.04. 6:30 0.0 l/m2 in 1 Std. -
Ortszeit Stärke Spitze Richtung
km/h Bft. km/h Grad Sektor
Mi, 24.04. 8:00 22 4 43 110° O
Mi, 24.04. 2:00 22 4 43 110° O
Di, 23.04. 20:00 11 2 50 90° O
Di, 23.04. 14:00 28 4 56 90° O
Di, 23.04. 8:00 25 4 47 100° O
Di, 23.04. 2:00 20 4 39 110° O
Mo, 22.04. 20:00 14 3 36 90° O
Mo, 22.04. 14:00 18 3 36 90° O
Ortszeit Stärke Spitze Richtung
km/h Bft. km/h Grad Sektor
Mi, 24.04. 9:30 24 4 44 110° O
Mi, 24.04. 9:20 24 4 - 110° O
Mi, 24.04. 9:10 24 4 - 110° O
Mi, 24.04. 9:00 25 4 43 110° O
Mi, 24.04. 8:50 25 4 - 110° O
Mi, 24.04. 8:40 28 4 - 110° O
Mi, 24.04. 8:30 22 4 39 110° O
Mi, 24.04. 8:00 22 4 40 110° O
Mi, 24.04. 7:30 18 3 40 110° O
Mi, 24.04. 7:00 22 4 36 120° SO
Mi, 24.04. 6:30 20 4 35 110° O
Ortszeit Untergrenze Bedeckung Gattung
total tief tief mittel hoch
Mi, 24.04. 8:00 1200 m 8/8 8/8 - - -
Mi, 24.04. 2:00 3600 m 6/8 6/8 - - -
Di, 23.04. 20:00 1170 m 7/8 7/8 - - -
Di, 23.04. 14:00 - 0/8 0/8 - - -
Di, 23.04. 8:00 - 0/8 0/8 - - -
Di, 23.04. 2:00 - 0/8 0/8 - - -
Mo, 22.04. 20:00 - 0/8 0/8 - - -
Mo, 22.04. 14:00 - 0/8 0/8 - - -
Ortszeit Bedeckungsgrad in Achtel und Wolkenuntergrenze
Mi, 24.04. 9:30 3(1260m) 7(7800m)
Mi, 24.04. 9:20 3(1260m) 7(7800m)
Mi, 24.04. 9:10 5(1260m) 6(7800m)
Mi, 24.04. 9:00 8(1230m)
Mi, 24.04. 8:50 8(1230m)
Mi, 24.04. 8:40 8(1230m)
Mi, 24.04. 8:30 8(1290m)
Mi, 24.04. 8:00 5(1200m) 8(1380m)
Mi, 24.04. 7:30 3(1020m) 5(1350m)
Mi, 24.04. 7:00 1(1050m)
Mi, 24.04. 6:30 keine Wolken
Ortszeit Luftdruck NN (hPa) Tendenz (hPa in 3 Std.)
Mi, 24.04. 8:00 1009 + 0,2
Mi, 24.04. 2:00 1010 - 1,5
Di, 23.04. 20:00 1011 - 0,8
Di, 23.04. 14:00 1014 - 2,0
Di, 23.04. 8:00 1018 - 0,4
Di, 23.04. 2:00 1019 - 0,9
Mo, 22.04. 20:00 1019 - 0,6
Mo, 22.04. 14:00 1021 - 0,7
Ortszeit Luftdruck NN (hPa) Tendenz (hPa in 3 Std.)
Mi, 24.04. 9:30 1009 - 0,1
Mi, 24.04. 9:20 1009 keine Meldung
Mi, 24.04. 9:10 1009 keine Meldung
Mi, 24.04. 9:00 1009 - 0,1
Mi, 24.04. 8:50 1009 keine Meldung
Mi, 24.04. 8:40 1009 keine Meldung
Mi, 24.04. 8:30 1009 + 0,1
Mi, 24.04. 8:00 1009 + 0,2
Mi, 24.04. 7:30 1009 0,0
Mi, 24.04. 7:00 1009 - 0,1
Mi, 24.04. 6:30 1009 0,0
Ortszeit Schneehöhe (cm)
Mi, 24.04. 8:00 0
Mi, 24.04. 2:00 0
Di, 23.04. 20:00 0
Di, 23.04. 14:00 0
Di, 23.04. 8:00 0
Di, 23.04. 2:00 0
Mo, 22.04. 20:00 0
Mo, 22.04. 14:00 0
Ortszeit Schneehöhe (cm)
Mi, 24.04. 9:30 0
Mi, 24.04. 9:20 0
Mi, 24.04. 9:10 0
Mi, 24.04. 9:00 0
Mi, 24.04. 8:50 0
Mi, 24.04. 8:40 0
Mi, 24.04. 8:30 0
Mi, 24.04. 8:00 0
Mi, 24.04. 7:30 0
Mi, 24.04. 7:00 0
Mi, 24.04. 6:30 0
Link zu dieser Seite / Seite empfehlen

Das Wetter in ...